Gage, OK

2:21 PM CST on March 04, 2015 (GMT -0600)
Barnes - Farm | Change Station
CLOSE
Current Station
Personal Weather Station
Location: Gage, OK
Elevation: 2220 ft
Nearby Weather Stations
Active Advisory: Winter Weather Advisory

Elev 2220 ft 36.28 °N, 99.80 °W | Updated 4 seconds ago

Light Snow
Light Snow
25.8 °F
Feels Like 13 °F
N
16.0
Wind Variable Wind from NNE
Gusts 25.0 mph

Today
High -- | Low -- °F
--% Chance of Precip.
Yesterday
High -- | Low -- °F
Precip. -- in
7:05 AM 6:36 PM
Waxing Gibbous, 99% visible
Pressure 30.29 in
Visibility 7.0 miles
Clouds Few 2600 ft
Overcast 6000 ft
Windchill 13 °F
Dew Point 18 °F
Humidity 72%
Rainfall 0.00 in
Snow Depth Not available.
UV 2.1 out of 12
Pollen .60 out of 12
Air Quality Not available.
Flu Activity Not available.
METAR KGAG 041953Z AUTO 01019G25KT 7SM -SN FEW026 OVC060 M04/M10 A3023 RMK AO2 UPE1855SNB1855 SLP255 P0000 T10391100

More Conditions Fewer Conditions

Pressure 30.29 in
Visibility 7.0 miles
Clouds Few 2600 ft
Overcast 6000 ft
Windchill 13 °F
Dew Point 18 °F
Humidity 72%
Rainfall 0.00 in
Snow Depth Not available.
UV 2.1 out of 12
Pollen .60 out of 12
Air Quality Not available.
Flu Activity Not available.
METAR KGAG 041953Z AUTO 01019G25KT 7SM -SN FEW026 OVC060 M04/M10 A3023 RMK AO2 UPE1855SNB1855 SLP255 P0000 T10391100

More Conditions Fewer Conditions

10-Day Weather Forecast

Almanac

Astronomy

Mar. 04, 2015 Rise Set
Actual Time
Civil Twilight
Nautical Twilight
Astronomical Twilight
Moon
Length of Visible Light
Length of Day
Tomorrow will be .
, % of the Moon is Illuminated

Today's Extremes

State Highs State Lows

Community

WunderPhotos

Upload Photos

1,802,575 photos uploaded!

WunderBlogs® & News

Nearby

Air Quality

  Air Quality AQ Index Pollutant
Not available.

Snow Depth

Station Depth Elevation

Earthquake Activity

City Distance Mag. Time & Date
Minimum magnitude displayed is 2.5.

Coastal Water Temperatures

Place Temperature

Nearby Weather Stations

Winter Weather Advisory
Statement as of 12:09 PM CST on March 04, 2015

... Winter Weather Advisory remains in effect until 6 PM CST this
evening...

A Winter Weather Advisory remains in effect until 6 PM CST this
evening.

* Timing: areas of snow will continue this afternoon before slowly
decreasing late this afternoon.

* Snow accumulations: snow accumulations of one to two inches are
possible today.

* Main impact: slick roadways are expected from snow and from
freezing rain that occurred this morning.

Precautionary/preparedness actions...

Be careful if you have to travel. Even small amounts of ice and
snow can make roads and sidewalks slick and dangerous.